Time,TemperatureF,DewpointF,PressureIn,WindDirection,WindDirectionDegrees,WindSpeedMPH,WindSpeedGustMPH,Humidity,HourlyPrecipIn,Conditions,Clouds,dailyrainin,SoftwareType,DateUTC
2013-03-23 00:01:00,54.9,43.3,28.91,East,82,2.2,3.6,65,0.00,,,0.00,LWC V2.10 B1813,2013-03-23 05:01:00,
2013-03-23 00:06:00,54.7,43.5,28.91,ENE,61,0.0,2.2,66,0.00,,,0.00,LWC V2.10 B1813,2013-03-23 05:06:00,
2013-03-23 00:11:00,54.9,43.7,28.91,North,357,3.6,3.6,66,0.00,,,0.00,LWC V2.10 B1813,2013-03-23 05:11:00,
2013-03-23 00:16:00,54.9,43.7,28.88,ENE,64,0.0,3.6,66,0.00,,,0.00,LWC V2.10 B1813,2013-03-23 05:16:00,
2013-03-23 00:21:00,55.0,44.3,28.88,ENE,60,4.9,4.9,67,0.00,,,0.00,LWC V2.10 B1813,2013-03-23 05:21:00,
2013-03-23 00:26:00,54.9,44.1,28.88,ENE,68,3.1,7.6,67,0.00,,,0.00,LWC V2.10 B1813,2013-03-23 05:26:00,
2013-03-23 00:31:00,54.7,43.9,28.88,ENE,66,2.2,5.4,67,0.00,,,0.00,LWC V2.10 B1813,2013-03-23 05:31:00,
2013-03-23 00:36:00,54.7,43.9,28.88,East,90,3.1,4.0,67,0.00,,,0.00,LWC V2.10 B1813,2013-03-23 05:36:00,
2013-03-23 00:41:00,54.7,43.9,28.88,NNE,22,3.6,3.6,67,0.00,,,0.00,LWC V2.10 B1813,2013-03-23 05:41:00,
2013-03-23 00:46:00,54.7,44.3,28.88,NE,46,2.7,4.0,68,0.00,,,0.00,LWC V2.10 B1813,2013-03-23 05:46:00,
2013-03-23 00:51:00,54.5,44.2,28.88,North,0,7.6,7.6,68,0.00,,,0.00,LWC V2.10 B1813,2013-03-23 05:51:00,
2013-03-23 00:56:00,54.3,44.0,28.88,NE,51,4.0,7.2,68,0.00,,,0.00,LWC V2.10 B1813,2013-03-23 05:56:00,
2013-03-23 01:01:00,53.8,43.5,28.88,East,95,4.0,4.0,68,0.00,,,0.00,LWC V2.10 B1813,2013-03-23 06:01:00,
2013-03-23 01:06:00,53.6,43.7,28.88,ENE,60,2.2,5.4,69,0.00,,,0.00,LWC V2.10 B1813,2013-03-23 06:06:00,
2013-03-23 01:11:00,53.6,43.7,28.88,ENE,71,2.2,3.6,69,0.00,,,0.00,LWC V2.10 B1813,2013-03-23 06:11:00,
2013-03-23 01:16:00,53.4,43.9,28.88,North,353,3.1,4.0,70,0.00,,,0.00,LWC V2.10 B1813,2013-03-23 06:16:00,
2013-03-23 01:21:00,53.4,43.9,28.88,NE,48,0.0,3.6,70,0.00,,,0.00,LWC V2.10 B1813,2013-03-23 06:21:00,
2013-03-23 01:26:00,53.1,43.5,28.88,NNE,22,0.0,3.6,70,0.00,,,0.00,LWC V2.10 B1813,2013-03-23 06:26:00,
2013-03-23 01:31:00,53.1,43.5,28.88,ENE,58,3.1,3.1,70,0.00,,,0.00,LWC V2.10 B1813,2013-03-23 06:31:00,
2013-03-23 01:36:00,53.1,43.9,28.88,NNE,33,0.0,3.1,71,0.00,,,0.00,LWC V2.10 B1813,2013-03-23 06:36:00,
2013-03-23 01:41:00,53.1,43.9,28.88,ENE,76,0.0,5.4,71,0.00,,,0.00,LWC V2.10 B1813,2013-03-23 06:41:00,
2013-03-23 01:46:00,52.9,43.7,28.88,NNE,24,3.1,5.8,71,0.00,,,0.00,LWC V2.10 B1813,2013-03-23 06:46:00,
2013-03-23 01:51:00,52.7,43.6,28.88,North,11,0.0,6.3,71,0.00,,,0.00,LWC V2.10 B1813,2013-03-23 06:51:00,
2013-03-23 01:56:00,52.5,43.8,28.88,North,353,5.8,6.3,72,0.00,,,0.00,LWC V2.10 B1813,2013-03-23 06:56:00,
2013-03-23 02:01:00,52.2,43.4,28.91,NE,37,3.1,4.0,72,0.00,,,0.00,LWC V2.10 B1813,2013-03-23 07:01:00,
2013-03-23 02:06:00,52.2,43.4,28.91,NNE,20,0.0,4.9,72,0.00,,,0.00,LWC V2.10 B1813,2013-03-23 07:06:00,
2013-03-23 02:11:00,52.2,43.4,28.91,NE,45,0.0,5.8,72,0.00,,,0.00,LWC V2.10 B1813,2013-03-23 07:11:00,
2013-03-23 02:16:00,52.2,43.4,28.91,North,357,5.4,5.4,72,0.00,,,0.00,LWC V2.10 B1813,2013-03-23 07:16:00,
2013-03-23 02:21:00,52.0,43.2,28.91,North,0,3.1,4.0,72,0.00,,,0.00,LWC V2.10 B1813,2013-03-23 07:21:00,
2013-03-23 02:26:00,51.8,43.4,28.91,North,357,3.1,3.6,73,0.00,,,0.00,LWC V2.10 B1813,2013-03-23 07:26:00,
2013-03-23 02:31:00,51.8,43.4,28.91,NNE,17,0.0,4.9,73,0.00,,,0.00,LWC V2.10 B1813,2013-03-23 07:31:00,
2013-03-23 02:36:00,51.8,43.4,28.91,North,353,3.6,5.8,73,0.00,,,0.00,LWC V2.10 B1813,2013-03-23 07:36:00,
2013-03-23 02:41:00,52.0,43.6,28.91,NNE,21,2.7,5.4,73,0.00,,,0.00,LWC V2.10 B1813,2013-03-23 07:41:00,
2013-03-23 02:46:00,52.0,43.6,28.91,ENE,60,0.0,5.4,73,0.00,,,0.00,LWC V2.10 B1813,2013-03-23 07:46:00,
2013-03-23 02:51:00,51.6,43.2,28.91,North,357,5.4,5.4,73,0.00,,,0.00,LWC V2.10 B1813,2013-03-23 07:51:00,
2013-03-23 02:56:00,51.6,43.6,28.91,North,353,3.6,6.7,74,0.00,,,0.00,LWC V2.10 B1813,2013-03-23 07:56:00,
2013-03-23 03:01:00,51.6,43.6,28.88,North,11,5.8,6.3,74,0.00,,,0.00,LWC V2.10 B1813,2013-03-23 08:01:00,
2013-03-23 03:06:00,51.6,43.6,28.88,North,0,3.1,5.4,74,0.00,,,0.00,LWC V2.10 B1813,2013-03-23 08:06:00,
2013-03-23 03:11:00,51.6,43.6,28.88,NE,34,5.4,5.4,74,0.00,,,0.00,LWC V2.10 B1813,2013-03-23 08:11:00,
2013-03-23 03:16:00,51.4,43.4,28.88,NNW,344,3.1,5.8,74,0.00,,,0.00,LWC V2.10 B1813,2013-03-23 08:16:00,
2013-03-23 03:21:00,51.6,43.6,28.88,North,357,0.0,3.1,74,0.00,,,0.00,LWC V2.10 B1813,2013-03-23 08:21:00,
2013-03-23 03:26:00,51.4,43.4,28.88,North,0,5.4,5.8,74,0.00,,,0.00,LWC V2.10 B1813,2013-03-23 08:26:00,
2013-03-23 03:31:00,51.4,43.8,28.88,North,350,2.7,2.7,75,0.00,,,0.00,LWC V2.10 B1813,2013-03-23 08:31:00,
2013-03-23 03:36:00,51.6,44.0,28.88,North,0,2.7,5.8,75,0.00,,,0.00,LWC V2.10 B1813,2013-03-23 08:36:00,
2013-03-23 03:41:00,51.6,44.0,28.88,NNW,346,2.2,4.0,75,0.00,,,0.00,LWC V2.10 B1813,2013-03-23 08:41:00,
2013-03-23 03:46:00,51.6,44.0,28.88,North,0,2.2,5.4,75,0.00,,,0.00,LWC V2.10 B1813,2013-03-23 08:46:00,
2013-03-23 03:52:00,51.4,43.8,28.88,North,9,0.0,3.1,75,0.00,,,0.00,LWC V2.10 B1813,2013-03-23 08:52:00,
2013-03-23 03:57:00,51.6,44.0,28.88,NNW,329,0.0,3.1,75,0.00,,,0.00,LWC V2.10 B1813,2013-03-23 08:57:00,
2013-03-23 04:02:00,51.4,43.8,28.91,North,353,3.1,4.0,75,0.00,,,0.00,LWC V2.10 B1813,2013-03-23 09:02:00,
2013-03-23 04:07:00,51.4,43.8,28.91,North,350,2.2,4.0,75,0.00,,,0.00,LWC V2.10 B1813,2013-03-23 09:07:00,
2013-03-23 04:12:00,51.4,43.8,28.91,NNE,20,3.6,4.0,75,0.00,,,0.00,LWC V2.10 B1813,2013-03-23 09:12:00,
2013-03-23 04:17:00,51.4,43.8,28.88,NNE,18,2.2,3.6,75,0.00,,,0.00,LWC V2.10 B1813,2013-03-23 09:17:00,
2013-03-23 04:22:00,51.6,44.0,28.88,NNW,335,3.1,3.6,75,0.00,,,0.00,LWC V2.10 B1813,2013-03-23 09:22:00,
2013-03-23 04:27:00,51.6,44.0,28.88,NNW,340,4.9,4.9,75,0.00,,,0.00,LWC V2.10 B1813,2013-03-23 09:27:00,
2013-03-23 04:32:00,51.4,43.8,28.88,North,353,5.8,6.3,75,0.00,,,0.00,LWC V2.10 B1813,2013-03-23 09:32:00,
2013-03-23 04:37:00,51.4,43.8,28.88,North,353,0.0,4.0,75,0.00,,,0.00,LWC V2.10 B1813,2013-03-23 09:37:00,
2013-03-23 04:42:00,51.3,43.6,28.88,North,1,5.4,6.3,75,0.00,,,0.00,LWC V2.10 B1813,2013-03-23 09:42:00,
2013-03-23 04:47:00,51.3,43.6,28.88,North,350,4.9,5.8,75,0.00,,,0.00,LWC V2.10 B1813,2013-03-23 09:47:00,
2013-03-23 04:52:00,51.3,43.6,28.88,NW,314,0.0,3.6,75,0.00,,,0.00,LWC V2.10 B1813,2013-03-23 09:52:00,
2013-03-23 04:57:00,51.3,43.6,28.88,NNW,330,0.0,0.0,75,0.00,,,0.00,LWC V2.10 B1813,2013-03-23 09:57:00,
2013-03-23 05:02:00,51.3,43.6,28.88,North,4,3.1,3.6,75,0.00,,,0.00,LWC V2.10 B1813,2013-03-23 10:02:00,
2013-03-23 05:07:00,51.3,43.6,28.88,North,357,0.0,3.6,75,0.00,,,0.00,LWC V2.10 B1813,2013-03-23 10:07:00,
2013-03-23 05:12:00,51.4,43.8,28.88,North,357,2.7,2.7,75,0.00,,,0.00,LWC V2.10 B1813,2013-03-23 10:12:00,
2013-03-23 05:17:00,51.4,43.8,28.88,NNE,16,3.1,5.8,75,0.00,,,0.00,LWC V2.10 B1813,2013-03-23 10:17:00,
2013-03-23 05:22:00,51.3,43.6,28.88,NNW,332,3.6,5.4,75,0.00,,,0.00,LWC V2.10 B1813,2013-03-23 10:22:00,
2013-03-23 05:27:00,51.1,43.8,28.88,NNE,30,0.0,2.2,76,0.00,,,0.00,LWC V2.10 B1813,2013-03-23 10:27:00,
2013-03-23 05:32:00,50.9,43.6,28.88,North,0,2.7,3.1,76,0.00,,,0.00,LWC V2.10 B1813,2013-03-23 10:32:00,
2013-03-23 05:37:00,50.9,43.6,28.88,NNW,338,6.3,6.3,76,0.00,,,0.00,LWC V2.10 B1813,2013-03-23 10:37:00,
2013-03-23 05:42:00,50.9,43.6,28.88,North,8,2.2,2.7,76,0.00,,,0.00,LWC V2.10 B1813,2013-03-23 10:42:00,
2013-03-23 05:47:00,50.7,43.4,28.88,North,357,3.6,4.0,76,0.00,,,0.00,LWC V2.10 B1813,2013-03-23 10:47:00,
2013-03-23 05:52:00,50.7,43.4,28.88,North,0,2.7,4.9,76,0.00,,,0.00,LWC V2.10 B1813,2013-03-23 10:52:00,
2013-03-23 05:57:00,50.9,43.9,28.88,NE,38,0.0,0.0,77,0.00,,,0.00,LWC V2.10 B1813,2013-03-23 10:57:00,
2013-03-23 06:02:00,50.7,43.8,28.88,NNE,18,4.0,4.0,77,0.00,,,0.00,LWC V2.10 B1813,2013-03-23 11:02:00,
2013-03-23 06:07:00,50.5,43.6,28.88,NNE,17,4.0,7.2,77,0.00,,,0.00,LWC V2.10 B1813,2013-03-23 11:07:00,
2013-03-23 06:12:00,50.5,43.6,28.88,North,0,0.0,5.8,77,0.00,,,0.00,LWC V2.10 B1813,2013-03-23 11:12:00,
2013-03-23 06:17:00,50.5,43.9,28.88,North,357,3.1,5.4,78,0.00,,,0.00,LWC V2.10 B1813,2013-03-23 11:17:00,
2013-03-23 06:22:00,50.4,43.8,28.88,NNE,12,4.9,6.3,78,0.00,,,0.00,LWC V2.10 B1813,2013-03-23 11:22:00,
2013-03-23 06:27:00,50.2,43.6,28.88,North,5,4.0,4.9,78,0.00,,,0.00,LWC V2.10 B1813,2013-03-23 11:27:00,
2013-03-23 06:32:00,50.4,43.8,28.88,North,353,3.1,4.9,78,0.00,,,0.00,LWC V2.10 B1813,2013-03-23 11:32:00,
2013-03-23 06:37:00,50.4,43.8,28.88,NE,34,2.7,2.7,78,0.00,,,0.00,LWC V2.10 B1813,2013-03-23 11:37:00,
2013-03-23 06:42:00,50.2,43.9,28.88,NE,43,0.0,5.8,79,0.00,,,0.00,LWC V2.10 B1813,2013-03-23 11:42:00,
2013-03-23 06:47:00,50.2,43.9,28.88,ESE,114,0.0,0.0,79,0.00,,,0.00,LWC V2.10 B1813,2013-03-23 11:47:00,
2013-03-23 06:52:00,50.2,43.9,28.88,NW,312,0.0,3.1,79,0.00,,,0.00,LWC V2.10 B1813,2013-03-23 11:52:00,
2013-03-23 06:57:00,50.4,44.1,28.88,North,9,2.7,5.8,79,0.00,,,0.00,LWC V2.10 B1813,2013-03-23 11:57:00,
2013-03-23 07:02:00,50.2,43.9,28.88,NNE,23,0.0,3.6,79,0.00,,,0.00,LWC V2.10 B1813,2013-03-23 12:02:00,
2013-03-23 07:07:00,50.5,44.3,28.88,NNE,16,3.1,3.1,79,0.00,,,0.00,LWC V2.10 B1813,2013-03-23 12:07:00,
2013-03-23 07:12:00,50.4,44.1,28.88,North,11,2.7,4.5,79,0.00,,,0.00,LWC V2.10 B1813,2013-03-23 12:12:00,
2013-03-23 07:17:00,50.4,44.4,28.88,NE,38,0.0,5.4,80,0.00,,,0.00,LWC V2.10 B1813,2013-03-23 12:17:00,
2013-03-23 07:22:00,50.4,44.4,28.88,North,6,4.0,4.0,80,0.00,,,0.00,LWC V2.10 B1813,2013-03-23 12:22:00,
2013-03-23 07:27:00,50.5,44.6,28.88,NNE,30,2.2,5.4,80,0.00,,,0.00,LWC V2.10 B1813,2013-03-23 12:27:00,
2013-03-23 07:32:00,50.4,44.4,28.88,North,357,2.7,3.1,80,0.00,,,0.00,LWC V2.10 B1813,2013-03-23 12:32:00,
2013-03-23 07:37:00,50.4,44.4,28.88,NNW,341,2.2,4.0,80,0.00,,,0.00,LWC V2.10 B1813,2013-03-23 12:37:00,
2013-03-23 07:42:00,50.4,44.4,28.88,NNE,33,3.6,5.4,80,0.00,,,0.00,LWC V2.10 B1813,2013-03-23 12:42:00,
2013-03-23 07:47:00,50.4,44.4,28.88,NNW,334,6.3,6.3,80,0.00,,,0.00,LWC V2.10 B1813,2013-03-23 12:47:00,
2013-03-23 07:52:00,50.5,44.9,28.88,NNW,335,6.7,6.7,81,0.00,,,0.00,LWC V2.10 B1813,2013-03-23 12:52:00,
2013-03-23 07:57:00,50.4,44.8,28.88,NW,325,0.0,6.7,81,0.00,,,0.00,LWC V2.10 B1813,2013-03-23 12:57:00,
2013-03-23 08:02:00,50.5,44.9,28.88,North,0,6.3,7.6,81,0.00,,,0.00,LWC V2.10 B1813,2013-03-23 13:02:00,
2013-03-23 08:07:00,50.4,44.8,28.88,North,0,4.9,5.4,81,0.00,,,0.00,LWC V2.10 B1813,2013-03-23 13:07:00,
2013-03-23 08:12:00,50.5,44.9,28.88,North,353,6.3,7.6,81,0.00,,,0.00,LWC V2.10 B1813,2013-03-23 13:12:00,
2013-03-23 08:17:00,50.4,44.8,28.91,North,353,5.8,5.8,81,0.00,,,0.00,LWC V2.10 B1813,2013-03-23 13:17:00,
2013-03-23 08:22:00,50.4,44.8,28.91,North,353,3.6,3.6,81,0.00,,,0.00,LWC V2.10 B1813,2013-03-23 13:22:00,
2013-03-23 08:27:00,50.4,45.1,28.91,NNW,345,3.1,6.3,82,0.00,,,0.00,LWC V2.10 B1813,2013-03-23 13:27:00,
2013-03-23 08:32:00,50.2,44.9,28.91,NNW,335,4.0,5.4,82,0.00,,,0.00,LWC V2.10 B1813,2013-03-23 13:32:00,
2013-03-23 08:37:00,50.2,44.9,28.91,North,4,2.2,6.3,82,0.00,,,0.00,LWC V2.10 B1813,2013-03-23 13:37:00,
2013-03-23 08:43:00,50.4,45.4,28.91,NNW,345,5.4,5.4,83,0.00,,,0.00,LWC V2.10 B1813,2013-03-23 13:43:00,
2013-03-23 08:48:00,50.4,45.4,28.91,North,3,3.1,4.9,83,0.00,,,0.00,LWC V2.10 B1813,2013-03-23 13:48:00,
2013-03-23 08:53:00,50.5,45.6,28.91,NW,322,2.7,3.6,83,0.00,,,0.00,LWC V2.10 B1813,2013-03-23 13:53:00,
2013-03-23 08:58:00,50.7,45.7,28.91,NW,324,2.2,4.0,83,0.00,,,0.00,LWC V2.10 B1813,2013-03-23 13:58:00,
2013-03-23 09:03:00,50.9,45.9,28.91,NW,324,3.1,5.8,83,0.00,,,0.00,LWC V2.10 B1813,2013-03-23 14:03:00,
2013-03-23 09:08:00,50.9,45.9,28.91,NNW,348,3.1,5.4,83,0.00,,,0.00,LWC V2.10 B1813,2013-03-23 14:08:00,
2013-03-23 09:13:00,50.9,46.2,28.91,NNW,337,4.9,6.3,84,0.00,,,0.00,LWC V2.10 B1813,2013-03-23 14:13:00,
2013-03-23 09:18:00,50.9,46.2,28.94,North,0,3.6,9.2,84,0.00,,,0.00,LWC V2.10 B1813,2013-03-23 14:18:00,
2013-03-23 09:23:00,50.7,46.1,28.94,North,353,4.0,5.8,84,0.00,,,0.00,LWC V2.10 B1813,2013-03-23 14:23:00,
2013-03-23 09:28:00,50.7,46.1,28.94,NNW,333,3.1,5.4,84,0.00,,,0.00,LWC V2.10 B1813,2013-03-23 14:28:00,
2013-03-23 09:46:00,50.4,45.7,28.94,NNE,27,3.6,6.3,84,0.00,,,0.00,LWC V2.10 B1813,2013-03-23 14:46:00,
2013-03-23 09:51:00,50.4,46.0,28.94,North,357,2.2,3.6,85,0.00,,,0.00,LWC V2.10 B1813,2013-03-23 14:51:00,
2013-03-23 09:56:00,50.4,46.0,28.94,NNE,32,5.4,5.8,85,0.00,,,0.00,LWC V2.10 B1813,2013-03-23 14:56:00,
2013-03-23 10:01:00,50.5,46.2,28.91,NNE,21,2.7,4.9,85,0.00,,,0.00,LWC V2.10 B1813,2013-03-23 15:01:00,
2013-03-23 10:06:00,50.4,46.0,28.91,NNE,21,0.0,2.7,85,0.00,,,0.00,LWC V2.10 B1813,2013-03-23 15:06:00,
2013-03-23 10:11:00,50.5,46.2,28.91,NNE,23,0.0,3.1,85,0.00,,,0.00,LWC V2.10 B1813,2013-03-23 15:11:00,
2013-03-23 10:16:00,50.5,46.2,28.91,NNE,23,2.7,4.0,85,0.00,,,0.00,LWC V2.10 B1813,2013-03-23 15:16:00,
2013-03-23 10:21:00,50.5,46.2,28.91,North,8,3.1,3.1,85,0.00,,,0.00,LWC V2.10 B1813,2013-03-23 15:21:00,
2013-03-23 10:26:00,50.5,46.5,28.91,North,6,0.0,3.6,86,0.00,,,0.00,LWC V2.10 B1813,2013-03-23 15:26:00,
2013-03-23 10:31:00,50.5,46.5,28.91,North,7,2.7,4.0,86,0.00,,,0.00,LWC V2.10 B1813,2013-03-23 15:31:00,
2013-03-23 10:36:00,50.5,46.5,28.91,North,7,0.0,3.6,86,0.00,,,0.00,LWC V2.10 B1813,2013-03-23 15:36:00,
2013-03-23 10:41:00,50.7,46.7,28.91,North,11,0.0,0.0,86,0.00,,,0.00,LWC V2.10 B1813,2013-03-23 15:41:00,
2013-03-23 10:46:00,50.9,46.9,28.91,North,0,0.0,3.1,86,0.00,,,0.00,LWC V2.10 B1813,2013-03-23 15:46:00,
2013-03-23 10:51:00,51.1,47.0,28.91,NNE,18,4.0,5.8,86,0.00,,,0.00,LWC V2.10 B1813,2013-03-23 15:51:00,
2013-03-23 10:56:00,51.1,47.0,28.91,NNE,29,0.0,3.1,86,0.00,,,0.00,LWC V2.10 B1813,2013-03-23 15:56:00,
2013-03-23 11:01:00,51.3,47.2,28.91,North,7,2.7,4.0,86,0.00,,,0.00,LWC V2.10 B1813,2013-03-23 16:01:00,
2013-03-23 11:06:00,51.4,47.4,28.91,North,353,2.2,3.6,86,0.00,,,0.00,LWC V2.10 B1813,2013-03-23 16:06:00,
2013-03-23 11:11:00,51.6,47.6,28.91,North,9,2.7,2.7,86,0.00,,,0.00,LWC V2.10 B1813,2013-03-23 16:11:00,
2013-03-23 11:16:00,52.0,47.9,28.91,NW,322,2.7,5.4,86,0.00,,,0.00,LWC V2.10 B1813,2013-03-23 16:16:00,
2013-03-23 11:21:00,52.7,48.6,28.91,North,1,2.2,2.7,86,0.00,,,0.00,LWC V2.10 B1813,2013-03-23 16:21:00,
2013-03-23 11:26:00,53.1,49.0,28.91,North,357,0.0,4.9,86,0.00,,,0.00,LWC V2.10 B1813,2013-03-23 16:26:00,
2013-03-23 11:31:00,53.1,48.7,28.91,NNW,330,0.0,2.7,85,0.00,,,0.00,LWC V2.10 B1813,2013-03-23 16:31:00,
2013-03-23 11:36:00,53.8,49.4,28.91,North,11,2.2,5.8,85,0.00,,,0.00,LWC V2.10 B1813,2013-03-23 16:36:00,
2013-03-23 11:41:00,54.3,49.6,28.91,North,357,3.1,4.0,84,0.00,,,0.00,LWC V2.10 B1813,2013-03-23 16:41:00,
2013-03-23 11:46:00,54.7,49.9,28.91,North,357,0.0,3.6,84,0.00,,,0.00,LWC V2.10 B1813,2013-03-23 16:46:00,
2013-03-23 11:51:00,55.2,50.1,28.91,North,1,3.6,4.0,83,0.00,,,0.00,LWC V2.10 B1813,2013-03-23 16:51:00,
2013-03-23 11:56:00,55.8,50.7,28.91,NW,304,4.0,4.0,83,0.00,,,0.00,LWC V2.10 B1813,2013-03-23 16:56:00,
2013-03-23 12:01:00,56.3,50.9,28.88,North,8,2.7,3.1,82,0.00,,,0.00,LWC V2.10 B1813,2013-03-23 17:01:00,
2013-03-23 12:06:00,56.7,51.2,28.88,WNW,299,0.0,0.0,82,0.00,,,0.00,LWC V2.10 B1813,2013-03-23 17:06:00,
2013-03-23 12:11:00,57.2,51.1,28.88,WNW,283,5.8,5.8,80,0.00,,,0.00,LWC V2.10 B1813,2013-03-23 17:11:00,
2013-03-23 12:16:00,57.4,50.9,28.88,WSW,257,4.5,6.3,79,0.00,,,0.00,LWC V2.10 B1813,2013-03-23 17:16:00,
2013-03-23 12:22:00,57.0,50.6,28.88,WNW,298,3.1,5.4,79,0.00,,,0.00,LWC V2.10 B1813,2013-03-23 17:22:00,
2013-03-23 12:27:00,57.9,51.1,28.88,NNW,328,0.0,4.0,78,0.00,,,0.00,LWC V2.10 B1813,2013-03-23 17:27:00,
2013-03-23 12:32:00,58.1,50.9,28.88,WNW,299,3.6,6.3,77,0.00,,,0.00,LWC V2.10 B1813,2013-03-23 17:32:00,
2013-03-23 12:37:00,58.6,51.1,28.88,WNW,286,5.8,5.8,76,0.00,,,0.00,LWC V2.10 B1813,2013-03-23 17:37:00,
2013-03-23 12:42:00,58.8,50.9,28.88,WNW,285,6.3,7.2,75,0.00,,,0.00,LWC V2.10 B1813,2013-03-23 17:42:00,
2013-03-23 12:47:00,58.6,50.4,28.88,NW,307,5.4,6.3,74,0.00,,,0.00,LWC V2.10 B1813,2013-03-23 17:47:00,
2013-03-23 12:52:00,59.0,50.7,28.88,NNW,336,3.1,5.8,74,0.00,,,0.00,LWC V2.10 B1813,2013-03-23 17:52:00,
2013-03-23 12:57:00,59.4,51.1,28.88,WNW,292,3.6,4.9,74,0.00,,,0.00,LWC V2.10 B1813,2013-03-23 17:57:00,
2013-03-23 13:02:00,59.0,50.4,28.88,West,274,4.5,6.3,73,0.00,,,0.00,LWC V2.10 B1813,2013-03-23 18:02:00,
2013-03-23 13:07:00,59.5,50.9,28.88,SW,225,2.7,3.6,73,0.00,,,0.00,LWC V2.10 B1813,2013-03-23 18:07:00,
2013-03-23 13:12:00,59.7,51.0,28.88,SW,236,0.0,4.0,73,0.00,,,0.00,LWC V2.10 B1813,2013-03-23 18:12:00,
2013-03-23 13:17:00,61.0,51.9,28.85,West,264,3.1,4.0,72,0.00,,,0.00,LWC V2.10 B1813,2013-03-23 18:17:00,
2013-03-23 13:22:00,61.3,52.2,28.85,North,349,2.7,3.6,72,0.00,,,0.00,LWC V2.10 B1813,2013-03-23 18:22:00,
2013-03-23 13:27:00,62.6,53.1,28.85,WNW,294,0.0,3.6,71,0.00,,,0.00,LWC V2.10 B1813,2013-03-23 18:27:00,
2013-03-23 13:32:00,62.6,53.1,28.85,WSW,243,0.0,4.5,71,0.00,,,0.00,LWC V2.10 B1813,2013-03-23 18:32:00,
2013-03-23 13:37:00,63.7,53.7,28.85,North,-999,-999.0,4.5,70,0.00,,,0.00,LWC V2.10 B1813,2013-03-23 18:37:00,
2013-03-23 13:42:00,65.1,54.7,28.85,North,-999,-999.0,4.5,69,0.00,,,0.00,LWC V2.10 B1813,2013-03-23 18:42:00,
2013-03-23 13:47:00,65.5,54.6,28.85,North,-999,-999.0,4.5,68,0.00,,,0.00,LWC V2.10 B1813,2013-03-23 18:47:00,
2013-03-23 13:52:00,66.4,55.1,28.85,North,-999,-999.0,3.6,67,0.00,,,0.00,LWC V2.10 B1813,2013-03-23 18:52:00,
2013-03-23 13:57:00,66.0,54.3,28.85,North,-999,-999.0,3.6,66,0.00,,,0.00,LWC V2.10 B1813,2013-03-23 18:57:00,
2013-03-23 14:02:00,66.0,53.9,28.82,North,-999,-999.0,3.6,65,0.00,,,0.00,LWC V2.10 B1813,2013-03-23 19:02:00,
2013-03-23 14:07:00,66.2,53.7,28.82,North,-999,-999.0,3.6,64,0.00,,,0.00,LWC V2.10 B1813,2013-03-23 19:07:00,
2013-03-23 14:12:00,66.9,54.3,28.82,North,-999,-999.0,3.6,64,0.00,,,0.00,LWC V2.10 B1813,2013-03-23 19:12:00,
2013-03-23 14:17:00,67.5,54.4,28.82,North,-999,-999.0,3.6,63,0.00,,,0.00,LWC V2.10 B1813,2013-03-23 19:17:00,
2013-03-23 14:22:00,67.5,54.0,28.82,North,-999,-999.0,3.6,62,0.00,,,0.00,LWC V2.10 B1813,2013-03-23 19:22:00,
2013-03-23 14:27:00,68.4,54.8,28.82,North,-999,-999.0,3.6,62,0.00,,,0.00,LWC V2.10 B1813,2013-03-23 19:27:00,
2013-03-23 14:32:00,69.6,54.6,28.79,North,-999,-999.0,3.6,59,0.00,,,0.00,LWC V2.10 B1813,2013-03-23 19:32:00,
2013-03-23 14:37:00,69.4,54.0,28.79,South,190,5.4,5.4,58,0.00,,,0.00,LWC V2.10 B1813,2013-03-23 19:37:00,
2013-03-23 14:42:00,70.2,54.7,28.79,North,-999,-999.0,5.4,58,0.00,,,0.00,LWC V2.10 B1813,2013-03-23 19:42:00,
2013-03-23 14:47:00,70.7,54.7,28.79,North,-999,-999.0,2.7,57,0.00,,,0.00,LWC V2.10 B1813,2013-03-23 19:47:00,
2013-03-23 14:52:00,70.2,54.7,28.79,SW,236,5.4,5.4,58,0.00,,,0.00,LWC V2.10 B1813,2013-03-23 19:52:00,
2013-03-23 14:57:00,70.3,55.8,28.79,North,-999,-999.0,5.8,60,0.00,,,0.00,LWC V2.10 B1813,2013-03-23 19:57:00,
2013-03-23 15:02:00,71.4,57.3,28.79,SW,231,5.8,5.8,61,0.00,,,0.00,LWC V2.10 B1813,2013-03-23 20:02:00,
2013-03-23 15:07:00,70.9,57.2,28.79,North,-999,-999.0,5.8,62,0.00,,,0.00,LWC V2.10 B1813,2013-03-23 20:07:00,
2013-03-23 15:12:00,71.2,57.1,28.79,North,-999,-999.0,5.8,61,0.00,,,0.00,LWC V2.10 B1813,2013-03-23 20:12:00,
2013-03-23 15:17:00,72.0,57.3,28.79,North,-999,-999.0,5.8,60,0.00,,,0.00,LWC V2.10 B1813,2013-03-23 20:17:00,
2013-03-23 15:22:00,72.0,56.8,28.79,North,-999,-999.0,5.8,59,0.00,,,0.00,LWC V2.10 B1813,2013-03-23 20:22:00,
2013-03-23 15:27:00,72.3,56.7,28.79,North,-999,-999.0,5.8,58,0.00,,,0.00,LWC V2.10 B1813,2013-03-23 20:27:00,
2013-03-23 15:32:00,72.3,57.2,28.76,North,-999,-999.0,5.8,59,0.00,,,0.00,LWC V2.10 B1813,2013-03-23 20:32:00,
2013-03-23 15:37:00,72.3,56.2,28.76,North,-999,-999.0,5.8,57,0.00,,,0.00,LWC V2.10 B1813,2013-03-23 20:37:00,
2013-03-23 15:42:00,72.0,55.9,28.76,North,-999,-999.0,5.8,57,0.00,,,0.00,LWC V2.10 B1813,2013-03-23 20:42:00,
2013-03-23 15:47:00,73.0,56.4,28.76,West,277,5.4,5.8,56,0.00,,,0.00,LWC V2.10 B1813,2013-03-23 20:47:00,
2013-03-23 15:52:00,72.9,56.2,28.76,North,-999,-999.0,5.8,56,0.00,,,0.00,LWC V2.10 B1813,2013-03-23 20:52:00,
2013-03-23 15:57:00,73.4,56.2,28.76,North,-999,-999.0,5.8,55,0.00,,,0.00,LWC V2.10 B1813,2013-03-23 20:57:00,
2013-03-23 16:02:00,74.5,57.2,28.76,North,-999,-999.0,5.8,55,0.00,,,0.00,LWC V2.10 B1813,2013-03-23 21:02:00,
2013-03-23 16:07:00,74.5,56.2,28.76,North,-999,-999.0,5.8,53,0.00,,,0.00,LWC V2.10 B1813,2013-03-23 21:07:00,
2013-03-23 16:12:00,73.9,55.2,28.76,North,-999,-999.0,5.8,52,0.00,,,0.00,LWC V2.10 B1813,2013-03-23 21:12:00,
2013-03-23 16:17:00,74.3,55.5,28.76,North,-999,-999.0,0.0,52,0.00,,,0.00,LWC V2.10 B1813,2013-03-23 21:17:00,
2013-03-23 16:22:00,74.7,55.8,28.76,North,-999,-999.0,0.0,52,0.00,,,0.00,LWC V2.10 B1813,2013-03-23 21:22:00,
2013-03-23 16:27:00,74.8,55.5,28.76,North,-999,-999.0,0.0,51,0.00,,,0.00,LWC V2.10 B1813,2013-03-23 21:27:00,
2013-03-23 16:32:00,75.0,55.1,28.76,North,-999,-999.0,0.0,50,0.00,,,0.00,LWC V2.10 B1813,2013-03-23 21:32:00,
2013-03-23 16:37:00,76.1,56.1,28.76,North,-999,-999.0,0.0,50,0.00,,,0.00,LWC V2.10 B1813,2013-03-23 21:37:00,
2013-03-23 16:42:00,77.4,56.7,28.76,North,-999,-999.0,0.0,49,0.00,,,0.00,LWC V2.10 B1813,2013-03-23 21:42:00,
2013-03-23 16:47:00,77.7,55.9,28.73,North,-999,-999.0,0.0,47,0.00,,,0.00,LWC V2.10 B1813,2013-03-23 21:47:00,
2013-03-23 16:52:00,77.5,55.1,28.73,North,-999,-999.0,0.0,46,0.00,,,0.00,LWC V2.10 B1813,2013-03-23 21:52:00,
2013-03-23 16:57:00,77.0,54.0,28.73,North,-999,-999.0,0.0,45,0.00,,,0.00,LWC V2.10 B1813,2013-03-23 21:57:00,
2013-03-23 17:02:00,77.4,54.3,28.73,North,-999,-999.0,0.0,45,0.00,,,0.00,LWC V2.10 B1813,2013-03-23 22:02:00,
2013-03-23 17:07:00,77.5,54.5,28.73,North,-999,-999.0,0.0,45,0.00,,,0.00,LWC V2.10 B1813,2013-03-23 22:07:00,
2013-03-23 17:12:00,78.1,55.0,28.73,North,-999,-999.0,0.0,45,0.00,,,0.00,LWC V2.10 B1813,2013-03-23 22:12:00,
2013-03-23 17:17:00,78.8,54.4,28.73,North,-999,-999.0,0.0,43,0.00,,,0.00,LWC V2.10 B1813,2013-03-23 22:17:00,
2013-03-23 17:22:00,78.8,54.4,28.73,North,-999,-999.0,0.0,43,0.00,,,0.00,LWC V2.10 B1813,2013-03-23 22:22:00,
2013-03-23 17:27:00,78.8,53.7,28.73,North,-999,-999.0,0.0,42,0.00,,,0.00,LWC V2.10 B1813,2013-03-23 22:27:00,
2013-03-23 17:32:00,79.2,54.1,28.73,North,-999,-999.0,0.0,42,0.00,,,0.00,LWC V2.10 B1813,2013-03-23 22:32:00,
2013-03-23 17:37:00,79.3,54.2,28.73,North,-999,-999.0,0.0,42,0.00,,,0.00,LWC V2.10 B1813,2013-03-23 22:37:00,
2013-03-23 17:42:00,79.5,54.4,28.73,North,-999,-999.0,0.0,42,0.00,,,0.00,LWC V2.10 B1813,2013-03-23 22:42:00,
2013-03-23 17:47:00,79.3,53.6,28.73,North,-999,-999.0,0.0,41,0.00,,,0.00,LWC V2.10 B1813,2013-03-23 22:47:00,
2013-03-23 17:52:00,79.2,53.4,28.73,North,-999,-999.0,0.0,41,0.00,,,0.00,LWC V2.10 B1813,2013-03-23 22:52:00,
2013-03-23 17:57:00,79.3,53.6,28.73,North,-999,-999.0,0.0,41,0.00,,,0.00,LWC V2.10 B1813,2013-03-23 22:57:00,
2013-03-23 18:02:00,79.9,54.1,28.73,North,-999,-999.0,0.0,41,0.00,,,0.00,LWC V2.10 B1813,2013-03-23 23:02:00,
2013-03-23 18:07:00,80.2,54.4,28.73,North,-999,-999.0,0.0,41,0.00,,,0.00,LWC V2.10 B1813,2013-03-23 23:07:00,
2013-03-23 18:12:00,80.6,54.7,28.73,North,-999,-999.0,0.0,41,0.00,,,0.00,LWC V2.10 B1813,2013-03-23 23:12:00,
2013-03-23 18:17:00,80.4,55.2,28.73,North,-999,-999.0,0.0,42,0.00,,,0.00,LWC V2.10 B1813,2013-03-23 23:17:00,
2013-03-23 18:22:00,80.4,55.2,28.73,North,-999,-999.0,0.0,42,0.00,,,0.00,LWC V2.10 B1813,2013-03-23 23:22:00,
2013-03-23 18:27:00,80.4,55.2,28.73,North,-999,-999.0,0.0,42,0.00,,,0.00,LWC V2.10 B1813,2013-03-23 23:27:00,
2013-03-23 18:32:00,79.7,54.6,28.73,North,-999,-999.0,0.0,42,0.00,,,0.00,LWC V2.10 B1813,2013-03-23 23:32:00,
2013-03-23 18:37:00,79.2,54.1,28.73,North,-999,-999.0,0.0,42,0.00,,,0.00,LWC V2.10 B1813,2013-03-23 23:37:00,
2013-03-23 18:42:00,79.0,53.9,28.73,North,-999,-999.0,0.0,42,0.00,,,0.00,LWC V2.10 B1813,2013-03-23 23:42:00,
2013-03-23 18:47:00,78.3,53.9,28.73,North,-999,-999.0,0.0,43,0.00,,,0.00,LWC V2.10 B1813,2013-03-23 23:47:00,
2013-03-23 18:52:00,77.5,53.3,28.73,North,-999,-999.0,0.0,43,0.00,,,0.00,LWC V2.10 B1813,2013-03-23 23:52:00,
2013-03-23 18:57:00,77.5,53.3,28.73,North,-999,-999.0,0.0,43,0.00,,,0.00,LWC V2.10 B1813,2013-03-23 23:57:00,
2013-03-23 19:02:00,77.0,52.8,28.73,North,-999,-999.0,0.0,43,0.00,,,0.00,LWC V2.10 B1813,2013-03-24 00:02:00,
2013-03-23 19:07:00,76.5,52.9,28.73,North,-999,-999.0,0.0,44,0.00,,,0.00,LWC V2.10 B1813,2013-03-24 00:07:00,
2013-03-23 19:12:00,75.6,52.1,28.73,North,-999,-999.0,0.0,44,0.00,,,0.00,LWC V2.10 B1813,2013-03-24 00:12:00,
2013-03-23 19:17:00,74.7,52.5,28.76,ENE,78,5.4,8.1,46,0.00,,,0.00,LWC V2.10 B1813,2013-03-24 00:17:00,
2013-03-23 19:22:00,73.9,53.0,28.76,ENE,78,6.3,8.7,48,0.00,,,0.00,LWC V2.10 B1813,2013-03-24 00:22:00,
2013-03-23 19:27:00,73.4,53.6,28.76,NE,50,5.4,11.9,50,0.00,,,0.00,LWC V2.10 B1813,2013-03-24 00:27:00,
2013-03-23 19:32:00,72.9,54.2,28.76,ENE,67,4.0,8.7,52,0.00,,,0.00,LWC V2.10 B1813,2013-03-24 00:32:00,
2013-03-23 19:37:00,72.5,54.9,28.76,North,-999,-999.0,8.7,54,0.00,,,0.00,LWC V2.10 B1813,2013-03-24 00:37:00,
2013-03-23 19:42:00,72.1,55.1,28.76,East,87,4.9,4.9,55,0.00,,,0.00,LWC V2.10 B1813,2013-03-24 00:42:00,
2013-03-23 19:47:00,71.8,55.2,28.76,East,93,6.3,8.3,56,0.00,,,0.00,LWC V2.10 B1813,2013-03-24 00:47:00,
2013-03-23 19:52:00,71.4,55.4,28.76,East,93,5.4,5.4,57,0.00,,,0.00,LWC V2.10 B1813,2013-03-24 00:52:00,
2013-03-23 19:57:00,71.1,55.5,28.76,East,96,7.6,7.6,58,0.00,,,0.00,LWC V2.10 B1813,2013-03-24 00:57:00,
2013-03-23 20:02:00,70.9,55.4,28.79,North,-999,-999.0,7.6,58,0.00,,,0.00,LWC V2.10 B1813,2013-03-24 01:02:00,
2013-03-23 20:07:00,70.9,55.8,28.79,North,-999,-999.0,7.6,59,0.00,,,0.00,LWC V2.10 B1813,2013-03-24 01:07:00,
2013-03-23 20:12:00,70.7,55.7,28.79,North,-999,-999.0,7.6,59,0.00,,,0.00,LWC V2.10 B1813,2013-03-24 01:12:00,
2013-03-23 20:17:00,70.5,56.0,28.79,East,81,5.4,5.4,60,0.00,,,0.00,LWC V2.10 B1813,2013-03-24 01:17:00,
2013-03-23 20:22:00,70.5,56.4,28.79,East,89,4.0,5.8,61,0.00,,,0.00,LWC V2.10 B1813,2013-03-24 01:22:00,
2013-03-23 20:27:00,70.2,56.1,28.79,SE,146,7.2,7.2,61,0.00,,,0.00,LWC V2.10 B1813,2013-03-24 01:27:00,
2013-03-23 20:32:00,69.8,56.2,28.79,East,83,8.1,8.1,62,0.00,,,0.00,LWC V2.10 B1813,2013-03-24 01:32:00,
2013-03-23 20:37:00,69.6,56.5,28.79,East,82,3.6,7.2,63,0.00,,,0.00,LWC V2.10 B1813,2013-03-24 01:37:00,
2013-03-23 20:42:00,69.3,56.1,28.79,ENE,73,4.0,7.6,63,0.00,,,0.00,LWC V2.10 B1813,2013-03-24 01:42:00,
2013-03-23 20:47:00,69.1,56.4,28.76,ENE,71,4.0,8.3,64,0.00,,,0.00,LWC V2.10 B1813,2013-03-24 01:47:00,
2013-03-23 20:52:00,68.7,56.0,28.76,East,84,8.1,8.1,64,0.00,,,0.00,LWC V2.10 B1813,2013-03-24 01:52:00,
2013-03-23 20:57:00,68.5,56.3,28.76,ENE,75,8.3,8.3,65,0.00,,,0.00,LWC V2.10 B1813,2013-03-24 01:57:00,
2013-03-23 21:02:00,68.2,56.0,28.79,ENE,68,4.9,4.9,65,0.00,,,0.00,LWC V2.10 B1813,2013-03-24 02:02:00,
2013-03-23 21:07:00,67.8,56.0,28.79,ENE,63,4.0,5.8,66,0.00,,,0.00,LWC V2.10 B1813,2013-03-24 02:07:00,
2013-03-23 21:12:00,67.8,56.0,28.79,ENE,73,5.8,8.3,66,0.00,,,0.00,LWC V2.10 B1813,2013-03-24 02:12:00,
2013-03-23 21:17:00,67.6,56.3,28.79,NE,52,3.1,6.3,67,0.00,,,0.00,LWC V2.10 B1813,2013-03-24 02:17:00,
2013-03-23 21:23:00,67.5,56.1,28.79,ENE,62,2.7,3.6,67,0.00,,,0.00,LWC V2.10 B1813,2013-03-24 02:23:00,
2013-03-23 21:28:00,67.1,56.2,28.79,North,-999,-999.0,3.6,68,0.00,,,0.00,LWC V2.10 B1813,2013-03-24 02:28:00,
2013-03-23 21:33:00,66.7,55.8,28.79,North,-999,-999.0,5.4,68,0.00,,,0.00,LWC V2.10 B1813,2013-03-24 02:33:00,
2013-03-23 21:38:00,66.6,56.1,28.79,North,-999,-999.0,5.4,69,0.00,,,0.00,LWC V2.10 B1813,2013-03-24 02:38:00,
2013-03-23 21:43:00,66.4,55.9,28.79,NE,44,6.3,7.6,69,0.00,,,0.00,LWC V2.10 B1813,2013-03-24 02:43:00,
2013-03-23 21:48:00,66.0,55.9,28.79,East,85,6.3,7.6,70,0.00,,,0.00,LWC V2.10 B1813,2013-03-24 02:48:00,
2013-03-23 21:53:00,65.8,56.2,28.79,ENE,63,5.4,6.3,71,0.00,,,0.00,LWC V2.10 B1813,2013-03-24 02:53:00,
2013-03-23 21:58:00,65.7,56.0,28.79,ENE,69,3.1,3.1,71,0.00,,,0.00,LWC V2.10 B1813,2013-03-24 02:58:00,
2013-03-23 22:03:00,65.5,55.8,28.82,North,-999,-999.0,3.1,71,0.00,,,0.00,LWC V2.10 B1813,2013-03-24 03:03:00,
2013-03-23 22:08:00,65.1,55.9,28.82,North,-999,-999.0,3.1,72,0.00,,,0.00,LWC V2.10 B1813,2013-03-24 03:08:00,
2013-03-23 22:13:00,64.9,55.7,28.82,ESE,119,2.7,3.6,72,0.00,,,0.00,LWC V2.10 B1813,2013-03-24 03:13:00,
2013-03-23 22:18:00,64.8,55.9,28.82,East,86,2.7,3.1,73,0.00,,,0.00,LWC V2.10 B1813,2013-03-24 03:18:00,
2013-03-23 22:23:00,64.4,55.5,28.82,ENE,60,2.7,2.7,73,0.00,,,0.00,LWC V2.10 B1813,2013-03-24 03:23:00,
2013-03-23 22:28:00,64.4,55.9,28.82,ENE,75,0.0,4.5,74,0.00,,,0.00,LWC V2.10 B1813,2013-03-24 03:28:00,
2013-03-23 22:33:00,64.0,55.6,28.82,NE,37,0.0,0.0,74,0.00,,,0.00,LWC V2.10 B1813,2013-03-24 03:33:00,
2013-03-23 22:38:00,63.7,55.6,28.82,North,-999,-999.0,2.7,75,0.00,,,0.00,LWC V2.10 B1813,2013-03-24 03:38:00,
2013-03-23 22:43:00,63.3,55.6,28.82,North,-999,-999.0,2.7,76,0.00,,,0.00,LWC V2.10 B1813,2013-03-24 03:43:00,
2013-03-23 22:48:00,63.1,55.4,28.82,NE,43,3.1,3.1,76,0.00,,,0.00,LWC V2.10 B1813,2013-03-24 03:48:00,
2013-03-23 22:53:00,62.8,55.5,28.82,East,87,2.7,4.0,77,0.00,,,0.00,LWC V2.10 B1813,2013-03-24 03:53:00,
2013-03-23 22:58:00,62.6,55.3,28.82,NNE,21,0.0,0.0,77,0.00,,,0.00,LWC V2.10 B1813,2013-03-24 03:58:00,
2013-03-23 23:00:00,62.6,55.3,28.82,NW,312,2.7,2.7,77,0.00,,,0.00,LWC V2.10 B1813,2013-03-24 04:00:00,
2013-03-23 23:01:00,62.6,55.3,28.82,NW,325,0.0,2.7,77,0.00,,,0.00,LWC V2.10 B1813,2013-03-24 04:01:00,
2013-03-23 23:06:00,62.6,55.6,28.82,East,92,4.0,4.0,78,0.00,,,0.00,LWC V2.10 B1813,2013-03-24 04:06:00,
2013-03-23 23:11:00,62.4,55.5,28.82,North,-999,-999.0,4.0,78,0.00,,,0.00,LWC V2.10 B1813,2013-03-24 04:11:00,
2013-03-23 23:15:00,62.2,55.3,28.82,North,-999,-999.0,4.0,78,0.00,,,0.00,LWC V2.10 B1813,2013-03-24 04:15:00,
2013-03-23 23:20:00,61.9,55.3,28.82,North,-999,-999.0,4.0,79,0.00,,,0.00,LWC V2.10 B1813,2013-03-24 04:20:00,
2013-03-23 23:25:00,61.7,55.1,28.82,North,-999,-999.0,4.0,79,0.00,,,0.00,LWC V2.10 B1813,2013-03-24 04:25:00,
2013-03-23 23:30:00,61.3,55.1,28.82,North,-999,-999.0,4.0,80,0.00,,,0.00,LWC V2.10 B1813,2013-03-24 04:30:00,
2013-03-23 23:35:00,61.2,54.9,28.82,East,86,4.9,4.9,80,0.00,,,0.00,LWC V2.10 B1813,2013-03-24 04:35:00,
2013-03-23 23:40:00,61.0,54.8,28.82,SSE,157,0.0,2.2,80,0.00,,,0.00,LWC V2.10 B1813,2013-03-24 04:40:00,
2013-03-23 23:45:00,60.8,54.9,28.82,East,84,0.0,2.2,81,0.00,,,0.00,LWC V2.10 B1813,2013-03-24 04:45:00,
2013-03-23 23:50:00,60.4,54.6,28.82,ESE,116,0.0,4.9,81,0.00,,,0.00,LWC V2.10 B1813,2013-03-24 04:50:00,
2013-03-23 23:55:00,60.3,54.7,28.82,ESE,106,0.0,0.0,82,0.00,,,0.00,LWC V2.10 B1813,2013-03-24 04:55:00,